PWSweather.com
Personal Weather Stations
Station Observations

OlomoucCZ

Lat: 49.5936202181, Lon: 17.2276005149

Elevation: 752

Station Type: Davis Vantage Pro 2 Activ

http://infopocasi-olomouc.cz

Latest ConditionsUpdated 9:30:01 PM GMT+01:01 Wednesday, Apr 24, 2019
Currently Today's Max Today's Min Today's Average
Temperature 61.8°F16.6°C 66.7°F19.3°C 52.0°F11.1°C 59.0°F15.0°C
Dew Point 53.1°F11.7°C 54.2°F12.3°C 46.4°F8.0°C 50.4°F10.2°C
Winds 11.5 mph E18.5 kmh E 25.3 mph -40.7 kmh - - 12.0 mph 19.3 kmh
Wind Gusts 16.1 mph25.9 kmh 32.2 mph51.8 kmh - -
Humidity 73% 82% 64% 74%
Pressure 29.83 in1010.2 mb 29.87 in1011.5 mb 29.82 in1009.8 mb -
Hour Temp Dew Point Humidity Winds Wind Gusts Pressure Precip Precip Rate Daily Precip Total
09:30 PM 61.8°F16.6°C 53.1°F11.7°C 73% 11.5 mph E18.5 kmh E 16.1 mph25.9 kmh 29.83 in1010.2 mb - 0.00 in0.0 mm 0.00 in0.0 mm
09:00 PM 62.1°F16.7°C 53.3°F11.8°C 73% 8.1 mph E13.0 kmh E 13.8 mph22.2 kmh 29.83 in1010.2 mb - 0.00 in0.0 mm 0.00 in0.0 mm
08:30 PM 62.6°F17.0°C 53.4°F11.9°C 72% 6.9 mph ESE11.1 kmh ESE 10.4 mph16.7 kmh 29.83 in1010.2 mb - 0.00 in0.0 mm 0.00 in0.0 mm
08:00 PM 63.1°F17.3°C 53.2°F11.8°C 70% 10.4 mph E16.7 kmh E 11.5 mph18.5 kmh 29.83 in1010.2 mb - 0.00 in0.0 mm 0.00 in0.0 mm
07:30 PM 63.6°F17.6°C 53.2°F11.8°C 69% 11.5 mph E18.5 kmh E 16.1 mph25.9 kmh 29.82 in1009.8 mb - 0.00 in0.0 mm 0.00 in0.0 mm
07:00 PM 64.6°F18.1°C 53.8°F12.1°C 68% 8.1 mph ESE13.0 kmh ESE 11.5 mph18.5 kmh 29.82 in1009.8 mb - 0.00 in0.0 mm 0.00 in0.0 mm
06:30 PM 66.2°F19.0°C 54.1°F12.3°C 65% 11.5 mph E18.5 kmh E 23.0 mph37.0 kmh 29.82 in1009.8 mb - 0.00 in0.0 mm 0.00 in0.0 mm
06:00 PM 66.7°F19.3°C 54.1°F12.3°C 64% 16.1 mph ESE25.9 kmh ESE 24.2 mph38.9 kmh 29.82 in1009.8 mb - 0.00 in0.0 mm 0.00 in0.0 mm
05:30 PM 66.7°F19.3°C 54.1°F12.3°C 64% 15.0 mph ESE24.1 kmh ESE 20.7 mph33.3 kmh 29.82 in1009.8 mb - 0.00 in0.0 mm 0.00 in0.0 mm
05:00 PM 66.5°F19.2°C 53.9°F12.2°C 64% 15.0 mph E24.1 kmh E 26.5 mph42.6 kmh 29.83 in1010.2 mb - 0.00 in0.0 mm 0.00 in0.0 mm
04:30 PM 66.5°F19.2°C 53.9°F12.2°C 64% 15.0 mph SE24.1 kmh SE 24.2 mph38.9 kmh 29.83 in1010.2 mb - 0.00 in0.0 mm 0.00 in0.0 mm
04:00 PM 66.2°F19.0°C 53.7°F12.1°C 64% 15.0 mph SE24.1 kmh SE 18.4 mph29.6 kmh 29.84 in1010.5 mb - 0.00 in0.0 mm 0.00 in0.0 mm
03:30 PM 66.3°F19.1°C 54.2°F12.3°C 65% 13.8 mph SE22.2 kmh SE 24.2 mph38.9 kmh 29.84 in1010.5 mb - 0.00 in0.0 mm 0.00 in0.0 mm
03:00 PM 65.9°F18.8°C 53.8°F12.1°C 65% 20.7 mph SE33.3 kmh SE 26.5 mph42.6 kmh 29.84 in1010.5 mb - 0.00 in0.0 mm 0.00 in0.0 mm
02:30 PM 65.5°F18.6°C 53.4°F11.9°C 65% 13.8 mph SE22.2 kmh SE 18.4 mph29.6 kmh 29.85 in1010.8 mb - 0.00 in0.0 mm 0.00 in0.0 mm
02:00 PM 65.4°F18.6°C 53.8°F12.1°C 66% 9.2 mph E14.8 kmh E 16.1 mph25.9 kmh 29.85 in1010.8 mb - 0.00 in0.0 mm 0.00 in0.0 mm
01:30 PM 65.2°F18.4°C 53.1°F11.7°C 65% 16.1 mph SE25.9 kmh SE 20.7 mph33.3 kmh 29.85 in1010.8 mb - 0.00 in0.0 mm 0.00 in0.0 mm
01:00 PM 65.3°F18.5°C 52.8°F11.6°C 64% 25.3 mph SE40.7 kmh SE 32.2 mph51.8 kmh 29.86 in1011.2 mb - 0.00 in0.0 mm 0.00 in0.0 mm
12:30 PM 65.0°F18.3°C 52.9°F11.6°C 65% 15.0 mph ESE24.1 kmh ESE 19.6 mph31.5 kmh 29.85 in1010.8 mb - 0.00 in0.0 mm 0.00 in0.0 mm
12:00 PM 62.9°F17.2°C 52.6°F11.4°C 69% 8.1 mph E13.0 kmh E 12.7 mph20.4 kmh 29.86 in1011.2 mb - 0.00 in0.0 mm 0.00 in0.0 mm
11:30 AM 63.1°F17.3°C 52.8°F11.6°C 69% 11.5 mph ESE18.5 kmh ESE 11.5 mph18.5 kmh 29.85 in1010.8 mb - 0.00 in0.0 mm 0.00 in0.0 mm
11:00 AM 61.4°F16.3°C 52.3°F11.3°C 72% 18.4 mph SE29.6 kmh SE 28.8 mph46.3 kmh 29.86 in1011.2 mb - 0.00 in0.0 mm 0.00 in0.0 mm
10:30 AM 58.5°F14.7°C 51.0°F10.6°C 76% 10.4 mph SE16.7 kmh SE 16.1 mph25.9 kmh 29.86 in1011.2 mb - 0.00 in0.0 mm 0.00 in0.0 mm
10:00 AM 57.0°F13.9°C 50.2°F10.1°C 78% 5.8 mph E9.3 kmh E 11.5 mph18.5 kmh 29.87 in1011.5 mb - 0.00 in0.0 mm 0.00 in0.0 mm
09:30 AM 55.9°F13.3°C 49.5°F9.7°C 79% 16.1 mph E25.9 kmh E 23.0 mph37.0 kmh 29.86 in1011.2 mb - 0.00 in0.0 mm 0.00 in0.0 mm
09:00 AM 55.0°F12.8°C 48.6°F9.2°C 79% 13.8 mph ESE22.2 kmh ESE 16.1 mph25.9 kmh 29.86 in1011.2 mb - 0.00 in0.0 mm 0.00 in0.0 mm
08:30 AM 54.0°F12.2°C 48.0°F8.9°C 80% 11.5 mph ESE18.5 kmh ESE 16.1 mph25.9 kmh 29.86 in1011.2 mb - 0.00 in0.0 mm 0.00 in0.0 mm
08:00 AM 53.4°F11.9°C 47.4°F8.6°C 80% 6.9 mph ESE11.1 kmh ESE 11.5 mph18.5 kmh 29.86 in1011.2 mb - 0.00 in0.0 mm 0.00 in0.0 mm
07:30 AM 53.1°F11.7°C 47.4°F8.6°C 81% 9.2 mph SE14.8 kmh SE 11.5 mph18.5 kmh 29.86 in1011.2 mb - 0.00 in0.0 mm 0.00 in0.0 mm
07:00 AM 52.8°F11.6°C 47.1°F8.4°C 81% 13.8 mph E22.2 kmh E 18.4 mph29.6 kmh 29.85 in1010.8 mb - 0.00 in0.0 mm 0.00 in0.0 mm
06:30 AM 52.5°F11.4°C 46.8°F8.2°C 81% 9.2 mph ESE14.8 kmh ESE 13.8 mph22.2 kmh 29.85 in1010.8 mb - 0.00 in0.0 mm 0.00 in0.0 mm
06:00 AM 52.3°F11.3°C 46.6°F8.1°C 81% 9.2 mph E14.8 kmh E 11.5 mph18.5 kmh 29.85 in1010.8 mb - 0.00 in0.0 mm 0.00 in0.0 mm
05:30 AM 52.3°F11.3°C 46.6°F8.1°C 81% 8.1 mph ESE13.0 kmh ESE 11.5 mph18.5 kmh 29.85 in1010.8 mb - 0.00 in0.0 mm 0.00 in0.0 mm
05:00 AM 52.3°F11.3°C 46.6°F8.1°C 81% 8.1 mph ESE13.0 kmh ESE 11.5 mph18.5 kmh 29.84 in1010.5 mb - 0.00 in0.0 mm 0.00 in0.0 mm
04:30 AM 52.4°F11.3°C 46.4°F8.0°C 80% 16.1 mph ESE25.9 kmh ESE 19.6 mph31.5 kmh 29.84 in1010.5 mb - 0.00 in0.0 mm 0.00 in0.0 mm
04:00 AM 52.4°F11.3°C 46.4°F8.0°C 80% 12.7 mph SE20.4 kmh SE 17.3 mph27.8 kmh 29.84 in1010.5 mb - 0.00 in0.0 mm 0.00 in0.0 mm
03:30 AM 52.3°F11.3°C 46.6°F8.1°C 81% 11.5 mph E18.5 kmh E 18.4 mph29.6 kmh 29.85 in1010.8 mb - 0.00 in0.0 mm 0.00 in0.0 mm
03:00 AM 52.2°F11.2°C 46.5°F8.1°C 81% 8.1 mph E13.0 kmh E 11.5 mph18.5 kmh 29.85 in1010.8 mb - 0.00 in0.0 mm 0.00 in0.0 mm
02:30 AM 52.3°F11.3°C 46.6°F8.1°C 81% 9.2 mph E14.8 kmh E 11.5 mph18.5 kmh 29.85 in1010.8 mb - 0.00 in0.0 mm 0.00 in0.0 mm
02:00 AM 52.3°F11.3°C 46.6°F8.1°C 81% 9.2 mph ESE14.8 kmh ESE 13.8 mph22.2 kmh 29.85 in1010.8 mb - 0.00 in0.0 mm 0.00 in0.0 mm
01:30 AM 52.4°F11.3°C 46.4°F8.0°C 80% 10.4 mph ESE16.7 kmh ESE 15.0 mph24.1 kmh 29.85 in1010.8 mb - 0.00 in0.0 mm 0.00 in0.0 mm
01:00 AM 52.2°F11.2°C 46.6°F8.1°C 81% 12.7 mph ESE20.4 kmh ESE 18.4 mph29.6 kmh 29.86 in1011.2 mb - 0.00 in0.0 mm 0.00 in0.0 mm
12:30 AM 52.3°F11.3°C 46.6°F8.1°C 81% 10.4 mph ESE16.7 kmh ESE 17.3 mph27.8 kmh 29.86 in1011.2 mb - 0.00 in0.0 mm 0.00 in0.0 mm
12:00 AM 52.0°F11.1°C 46.7°F8.2°C 82% 11.5 mph E18.5 kmh E 18.4 mph29.6 kmh 29.86 in1011.2 mb - 0.00 in0.0 mm 0.00 in0.0 mm